Time;durP1;ratioP1;P1;durP2;ratioP2;P2;SDS_P1;SDS_P2;PMS_P1;PMS_P2;Temp;Humidity;BMP_temperature;BMP_pressure;BME280_temperature;BME280_humidity;BME280_pressure;Samples;Min_cycle;Max_cycle;Signal;HPM_P1;HPM_P2
2021/12/04 00:02:23;;;;;;;2.30;1.97;;;3.40;99.90;;;;;;5050769;28;20457;-72
2021/12/04 00:04:51;;;;;;;3.87;2.07;;;3.40;99.90;;;;;;5048322;28;20597;-73
2021/12/04 00:07:18;;;;;;;6.43;1.50;;;3.40;99.90;;;;;;5051004;28;20504;-73
2021/12/04 00:09:46;;;;;;;2.33;1.80;;;3.40;99.90;;;;;;5051086;28;20966;-73
2021/12/04 00:12:13;;;;;;;2.40;2.07;;;3.40;99.90;;;;;;5050906;28;20857;-73
2021/12/04 00:14:39;;;;;;;1.67;1.57;;;3.40;99.90;;;;;;5051441;28;20472;-72
2021/12/04 00:17:05;;;;;;;5.30;2.10;;;3.40;99.90;;;;;;5052361;28;21084;-73
2021/12/04 00:19:31;;;;;;;2.30;1.70;;;3.40;99.90;;;;;;5034327;28;20231;-73
2021/12/04 00:21:58;;;;;;;2.70;1.77;;;3.40;99.90;;;;;;5050648;28;20521;-73
2021/12/04 00:24:24;;;;;;;5.30;2.13;;;3.40;99.90;;;;;;5026140;28;20464;-73
2021/12/04 00:26:51;;;;;;;3.43;1.60;;;3.50;99.90;;;;;;5050455;28;20962;-73
2021/12/04 00:29:18;;;;;;;2.00;1.40;;;3.40;99.90;;;;;;5033927;28;20458;-73
2021/12/04 00:31:59;;;;;;;2.20;1.73;;;3.40;99.90;;;;;;5051845;28;20469;-72
2021/12/04 00:34:26;;;;;;;2.40;1.37;;;3.50;99.90;;;;;;5050536;28;20521;-74
2021/12/04 00:50:34;;;;;;;2.40;1.33;;;3.50;99.90;;;;;;5051324;28;20482;-68
2021/12/04 00:53:00;;;;;;;2.50;1.47;;;3.50;99.90;;;;;;5049449;28;20482;-72
2021/12/04 00:55:25;;;;;;;2.30;1.53;;;3.50;99.90;;;;;;5049832;28;20246;-71
2021/12/04 00:57:52;;;;;;;1.67;1.30;;;3.50;99.90;;;;;;5033785;28;20676;-71
2021/12/04 01:00:19;;;;;;;1.93;1.30;;;3.50;99.90;;;;;;5049480;28;20269;-71
2021/12/04 01:02:44;;;;;;;1.00;1.00;;;3.50;99.90;;;;;;5049697;28;20554;-71
2021/12/04 01:05:10;;;;;;;2.20;1.80;;;3.50;99.90;;;;;;5050100;28;20541;-71
2021/12/04 01:07:36;;;;;;;2.10;1.07;;;3.50;99.90;;;;;;5050817;28;20776;-71
2021/12/04 01:10:04;;;;;;;1.70;1.13;;;3.50;99.90;;;;;;5030033;28;20216;-71
2021/12/04 01:12:30;;;;;;;1.83;1.73;;;3.50;99.90;;;;;;5048356;28;20268;-72
2021/12/04 01:14:56;;;;;;;1.67;1.40;;;3.50;99.90;;;;;;5049111;28;20470;-71
2021/12/04 01:17:22;;;;;;;1.07;0.97;;;3.50;99.90;;;;;;5049393;28;20216;-71
2021/12/04 01:19:47;;;;;;;1.20;1.07;;;3.50;99.90;;;;;;5049429;28;20225;-71
2021/12/04 01:22:13;;;;;;;1.17;1.07;;;3.50;99.90;;;;;;5049254;28;20247;-71
2021/12/04 01:24:38;;;;;;;3.13;1.30;;;3.50;99.90;;;;;;5049416;28;20216;-69
2021/12/04 01:27:04;;;;;;;2.70;1.50;;;3.50;99.90;;;;;;5049433;28;20204;-71
2021/12/04 01:29:30;;;;;;;1.07;0.97;;;3.50;99.90;;;;;;5049117;28;20234;-71
2021/12/04 01:31:55;;;;;;;1.63;1.43;;;3.50;99.90;;;;;;5033193;28;20745;-70
2021/12/04 01:34:21;;;;;;;1.17;1.00;;;3.50;99.90;;;;;;5049048;28;20216;-71
2021/12/04 01:36:47;;;;;;;1.53;1.20;;;3.50;99.90;;;;;;5048991;28;20219;-71
2021/12/04 01:39:12;;;;;;;1.90;0.93;;;3.50;99.90;;;;;;5029400;28;20275;-71
2021/12/04 01:41:38;;;;;;;1.00;0.83;;;3.50;99.90;;;;;;5029455;28;20241;-73
2021/12/04 01:44:05;;;;;;;2.50;1.07;;;3.50;99.90;;;;;;5034497;28;20302;-71
2021/12/04 01:46:32;;;;;;;1.17;1.00;;;3.50;99.90;;;;;;5031849;28;20258;-71
2021/12/04 01:48:57;;;;;;;1.13;0.87;;;3.60;99.90;;;;;;5049586;28;20460;-71
2021/12/04 01:51:24;;;;;;;1.20;1.03;;;3.60;99.90;;;;;;5031689;28;20459;-71
2021/12/04 01:53:49;;;;;;;1.50;1.30;;;3.60;99.90;;;;;;5032470;28;20222;-71
2021/12/04 01:56:16;;;;;;;1.23;1.00;;;3.60;99.90;;;;;;5050209;28;20454;-71
2021/12/04 01:58:43;;;;;;;1.43;1.17;;;3.60;99.90;;;;;;5032684;28;20228;-71
2021/12/04 02:01:10;;;;;;;1.33;0.90;;;3.60;99.90;;;;;;5043587;28;20453;-71
2021/12/04 02:03:36;;;;;;;1.23;1.13;;;3.60;99.90;;;;;;5048741;28;20450;-71
2021/12/04 02:06:03;;;;;;;1.50;1.40;;;3.60;99.90;;;;;;5048637;28;20489;-71
2021/12/04 02:08:28;;;;;;;1.30;1.20;;;3.60;99.90;;;;;;5032024;28;20465;-70
2021/12/04 02:10:57;;;;;;;0.90;0.83;;;3.60;99.90;;;;;;5048885;28;20466;-70
2021/12/04 02:13:24;;;;;;;0.70;0.70;;;3.60;99.90;;;;;;5048563;28;20611;-71
2021/12/04 02:15:50;;;;;;;1.00;0.90;;;3.60;99.90;;;;;;5048160;28;20466;-71
2021/12/04 02:18:21;;;;;;;1.00;0.90;;;3.60;99.90;;;;;;5050032;28;20442;-71
2021/12/04 02:20:48;;;;;;;2.20;1.23;;;3.60;99.90;;;;;;5048799;28;20458;-70
2021/12/04 02:23:13;;;;;;;0.83;0.83;;;3.60;99.90;;;;;;5031461;28;21035;-71
2021/12/04 02:25:40;;;;;;;1.03;0.80;;;3.60;99.90;;;;;;5048063;28;20466;-70
2021/12/04 02:28:08;;;;;;;1.50;1.40;;;3.50;99.90;;;;;;5050083;28;20234;-70
2021/12/04 02:30:36;;;;;;;0.90;0.90;;;3.60;99.90;;;;;;5049959;28;20446;-69
2021/12/04 02:33:11;;;;;;;1.63;1.10;;;3.60;99.90;;;;;;5050465;28;20492;-71
2021/12/04 02:35:42;;;;;;;1.40;1.23;;;3.60;99.90;;;;;;5052019;28;20476;-70
2021/12/04 02:38:08;;;;;;;2.97;1.60;;;3.60;99.90;;;;;;5052833;28;20456;-71
2021/12/04 02:40:33;;;;;;;2.03;1.77;;;3.70;99.90;;;;;;5054038;28;20438;-69
2021/12/04 02:42:59;;;;;;;1.30;1.20;;;3.70;99.90;;;;;;5052056;28;20207;-71
2021/12/04 02:45:25;;;;;;;2.87;1.40;;;3.70;99.90;;;;;;5053292;28;20228;-73
2021/12/04 02:47:51;;;;;;;1.07;1.07;;;3.70;99.90;;;;;;5036388;28;20223;-70
2021/12/04 02:50:17;;;;;;;3.20;1.57;;;3.70;99.90;;;;;;5035350;28;20667;-71
2021/12/04 02:52:44;;;;;;;2.90;1.53;;;3.70;99.90;;;;;;5068540;28;20207;-70
2021/12/04 02:55:09;;;;;;;2.30;1.50;;;3.70;99.90;;;;;;5035702;28;20450;-72
2021/12/04 02:57:40;;;;;;;1.63;1.50;;;3.70;99.90;;;;;;5052866;28;20833;-72
2021/12/04 03:00:06;;;;;;;2.03;1.60;;;3.70;99.90;;;;;;5054012;28;20242;-71
2021/12/04 03:02:32;;;;;;;2.00;1.70;;;3.60;99.90;;;;;;5051857;28;20499;-71
2021/12/04 03:05:02;;;;;;;1.93;1.63;;;3.60;99.90;;;;;;5051864;28;20470;-71
2021/12/04 03:07:28;;;;;;;2.10;1.47;;;3.60;99.90;;;;;;5053426;28;20219;-69
2021/12/04 03:09:54;;;;;;;2.80;2.33;;;3.70;99.90;;;;;;5052630;28;20446;-71
2021/12/04 03:12:25;;;;;;;3.13;1.80;;;3.70;99.90;;;;;;5035518;28;20284;-72
2021/12/04 03:14:52;;;;;;;2.60;2.33;;;3.70;99.90;;;;;;5051534;28;20450;-72
2021/12/04 03:17:20;;;;;;;4.43;2.17;;;3.70;99.90;;;;;;5053219;28;20449;-71
2021/12/04 03:19:49;;;;;;;3.23;2.47;;;3.70;99.90;;;;;;5053260;28;20454;-71
2021/12/04 03:22:15;;;;;;;4.00;2.90;;;3.70;99.90;;;;;;5051676;28;20450;-72
2021/12/04 03:24:42;;;;;;;3.63;2.67;;;3.70;99.90;;;;;;5054448;28;20515;-72
2021/12/04 03:27:08;;;;;;;5.47;3.10;;;3.70;99.90;;;;;;5052100;28;20454;-72
2021/12/04 03:29:39;;;;;;;2.50;2.30;;;3.70;99.90;;;;;;5051738;28;20438;-69
2021/12/04 03:42:35;;;;;;;4.50;2.60;;;3.70;99.90;;;;;;5051409;28;20473;-72
2021/12/04 03:45:03;;;;;;;4.13;2.90;;;3.70;99.90;;;;;;5045148;28;20494;-70
2021/12/04 03:47:30;;;;;;;3.70;2.53;;;3.70;99.90;;;;;;5034737;28;20466;-71
2021/12/04 03:49:56;;;;;;;3.50;2.53;;;3.70;99.90;;;;;;5051945;28;20463;-73
2021/12/04 03:52:22;;;;;;;2.77;2.37;;;3.70;99.90;;;;;;5030254;28;20447;-72
2021/12/04 03:54:47;;;;;;;3.37;2.70;;;3.70;99.90;;;;;;5034815;28;20604;-71
2021/12/04 03:57:13;;;;;;;2.80;2.50;;;3.70;99.90;;;;;;5051695;28;20239;-71
2021/12/04 03:59:49;;;;;;;2.17;2.07;;;3.70;99.90;;;;;;5034856;28;20285;-72
2021/12/04 04:02:16;;;;;;;2.77;2.57;;;3.70;99.90;;;;;;5051371;28;20234;-71
2021/12/04 04:04:43;;;;;;;3.80;2.60;;;3.70;99.90;;;;;;5034354;28;20458;-72
2021/12/04 04:07:09;;;;;;;3.17;2.80;;;3.70;99.90;;;;;;5067824;28;21023;-72
2021/12/04 04:09:35;;;;;;;5.23;2.37;;;3.70;99.90;;;;;;5050446;28;20522;-70
2021/12/04 04:12:02;;;;;;;4.73;3.10;;;3.70;99.90;;;;;;5051395;28;20468;-72
2021/12/04 04:14:28;;;;;;;4.50;2.70;;;3.70;99.90;;;;;;5033320;28;20455;-71
2021/12/04 04:16:56;;;;;;;3.57;2.90;;;3.60;99.90;;;;;;5034074;28;20489;-73
2021/12/04 04:19:23;;;;;;;3.00;2.37;;;3.60;99.90;;;;;;5050025;28;20220;-71
2021/12/04 04:21:55;;;;;;;3.50;2.33;;;3.60;99.90;;;;;;5034206;28;20458;-72
2021/12/04 04:24:21;;;;;;;7.33;3.20;;;3.60;99.90;;;;;;5050319;28;20453;-72
2021/12/04 04:26:46;;;;;;;3.13;2.83;;;3.60;99.90;;;;;;5050287;28;20470;-72
2021/12/04 04:29:13;;;;;;;5.50;3.07;;;3.60;99.90;;;;;;5033561;28;20454;-72
2021/12/04 04:31:46;;;;;;;2.87;2.40;;;3.60;99.90;;;;;;5050763;28;20224;-71
2021/12/04 04:34:12;;;;;;;3.43;2.43;;;3.60;99.90;;;;;;5033919;28;20492;-72
2021/12/04 04:58:23;;;;;;;2.40;1.97;;;3.50;99.90;;;;;;5050192;28;20481;-72
2021/12/04 05:11:42;;;;;;;3.80;2.43;;;3.50;99.90;;;;;;5049415;28;20954;-71
2021/12/04 05:14:09;;;;;;;2.07;1.53;;;3.50;99.90;;;;;;5049809;28;20470;-72
2021/12/04 05:16:45;;;;;;;2.80;2.20;;;3.50;99.90;;;;;;5049214;28;20492;-73
2021/12/04 05:19:26;;;;;;;2.70;2.10;;;3.50;99.90;;;;;;5048985;28;20460;-71
2021/12/04 05:21:53;;;;;;;2.50;2.17;;;3.50;99.90;;;;;;5029854;28;20548;-73
2021/12/04 05:24:19;;;;;;;2.40;2.20;;;3.50;99.90;;;;;;5037424;28;20971;-73
2021/12/04 05:26:45;;;;;;;3.83;2.40;;;3.50;99.90;;;;;;5013087;28;20471;-72
2021/12/04 05:29:11;;;;;;;2.17;2.07;;;3.50;99.90;;;;;;5064929;28;20458;-72
2021/12/04 05:31:36;;;;;;;1.87;1.73;;;3.50;99.90;;;;;;5033136;28;20257;-68
2021/12/04 05:34:02;;;;;;;2.80;2.30;;;3.50;99.90;;;;;;5049769;28;20239;-72
2021/12/04 05:36:28;;;;;;;2.00;1.90;;;3.50;99.90;;;;;;5048534;28;20232;-72
2021/12/04 05:38:53;;;;;;;2.30;2.10;;;3.50;99.90;;;;;;5032921;28;20307;-72
2021/12/04 05:41:19;;;;;;;2.87;2.40;;;3.50;99.90;;;;;;5049030;28;20226;-73
2021/12/04 05:43:45;;;;;;;3.97;2.13;;;3.40;99.90;;;;;;5032764;28;20247;-72
2021/12/04 05:48:51;;;;;;;1.93;1.83;;;3.40;99.90;;;;;;5048584;28;20450;-72
2021/12/04 05:56:21;;;;;;;2.43;2.23;;;3.50;99.90;;;;;;5048153;28;20507;-69
2021/12/04 05:58:48;;;;;;;2.30;1.97;;;3.50;99.90;;;;;;5029655;28;20463;-72
2021/12/04 06:01:16;;;;;;;4.20;2.20;;;3.40;99.90;;;;;;5039701;28;20455;-73
2021/12/04 06:03:41;;;;;;;3.80;2.77;;;3.50;99.90;;;;;;5048897;28;20596;-70
2021/12/04 06:06:08;;;;;;;2.53;2.33;;;3.40;99.90;;;;;;5048024;28;20595;-72
2021/12/04 06:08:34;;;;;;;2.77;2.33;;;3.50;99.90;;;;;;5028567;28;20221;-69
2021/12/04 06:11:00;;;;;;;4.50;2.83;;;3.50;99.90;;;;;;5037079;28;20459;-72
2021/12/04 06:13:26;;;;;;;3.70;3.20;;;3.50;99.90;;;;;;5031875;28;20460;-72
2021/12/04 06:15:53;;;;;;;4.47;2.80;;;3.50;99.90;;;;;;5032074;28;20612;-72
2021/12/04 06:18:20;;;;;;;3.57;2.67;;;3.50;99.90;;;;;;5032216;28;20530;-72
2021/12/04 06:23:32;;;;;;;3.83;3.00;;;3.50;99.90;;;;;;5054469;28;20468;-72
2021/12/04 06:25:58;;;;;;;3.17;2.47;;;3.50;99.90;;;;;;5031812;28;20477;-72
2021/12/04 06:28:24;;;;;;;3.53;2.90;;;3.50;99.90;;;;;;5049942;28;20462;-72
2021/12/04 06:30:52;;;;;;;3.10;2.60;;;3.50;99.90;;;;;;5050392;28;20446;-72
2021/12/04 06:33:18;;;;;;;4.50;3.13;;;3.50;99.90;;;;;;5048310;28;20644;-72
2021/12/04 06:35:46;;;;;;;3.80;2.83;;;3.50;99.90;;;;;;5048382;28;20618;-71
2021/12/04 06:38:14;;;;;;;2.90;2.50;;;3.50;99.90;;;;;;5032099;28;20274;-72
2021/12/04 06:40:40;;;;;;;4.30;2.87;;;3.40;99.90;;;;;;5050618;28;20458;-71
2021/12/04 06:43:07;;;;;;;3.27;2.73;;;3.40;99.90;;;;;;5048612;28;20511;-71
2021/12/04 06:45:37;;;;;;;8.37;3.83;;;3.50;99.90;;;;;;5047954;28;20231;-72
2021/12/04 06:48:07;;;;;;;3.83;2.40;;;3.40;99.90;;;;;;5049043;28;20458;-72
2021/12/04 06:53:07;;;;;;;6.80;3.27;;;3.40;99.90;;;;;;5047118;28;20504;-72
2021/12/04 06:55:39;;;;;;;4.27;2.50;;;3.40;99.90;;;;;;5031556;28;20455;-71
2021/12/04 06:58:05;;;;;;;4.07;2.47;;;3.50;99.90;;;;;;5049786;28;20484;-72
2021/12/04 07:00:31;;;;;;;5.53;3.10;;;3.40;99.90;;;;;;5046033;28;20447;-72
2021/12/04 07:02:56;;;;;;;6.33;3.60;;;3.40;99.90;;;;;;5048400;28;20220;-71
2021/12/04 07:05:22;;;;;;;3.20;2.53;;;3.40;99.90;;;;;;5031451;28;20467;-71
2021/12/04 07:07:48;;;;;;;6.27;3.87;;;3.40;99.90;;;;;;5048108;28;20216;-72
2021/12/04 07:10:14;;;;;;;4.87;3.10;;;3.40;99.90;;;;;;5049534;28;20223;-71
2021/12/04 07:12:39;;;;;;;5.53;4.17;;;3.40;99.90;;;;;;5048478;28;20223;-69
2021/12/04 07:15:06;;;;;;;5.93;2.90;;;3.40;99.90;;;;;;5018873;28;20455;-74
2021/12/04 07:17:35;;;;;;;8.97;3.93;;;3.40;99.90;;;;;;5062462;28;20208;-69
2021/12/04 07:20:02;;;;;;;7.80;3.63;;;3.40;99.90;;;;;;5033838;28;20482;-72
2021/12/04 07:22:28;;;;;;;3.20;2.53;;;3.40;99.90;;;;;;5050288;28;20941;-71
2021/12/04 07:24:53;;;;;;;5.30;4.07;;;3.40;99.90;;;;;;5034752;28;20482;-72
2021/12/04 07:27:19;;;;;;;5.63;3.80;;;3.40;99.90;;;;;;5034521;28;20212;-71
2021/12/04 07:29:45;;;;;;;9.90;7.63;;;3.50;99.90;;;;;;5051764;28;20222;-71
2021/12/04 07:32:10;;;;;;;15.93;9.87;;;3.50;99.90;;;;;;5051472;28;20288;-71
2021/12/04 07:34:36;;;;;;;14.50;9.80;;;3.50;99.90;;;;;;5051687;28;20291;-70
2021/12/04 07:37:03;;;;;;;11.43;8.50;;;3.50;99.90;;;;;;5034629;28;20317;-71
2021/12/04 07:39:29;;;;;;;9.13;6.43;;;3.50;99.90;;;;;;5051531;28;20672;-72
2021/12/04 07:41:55;;;;;;;11.50;6.80;;;3.50;99.90;;;;;;5052067;28;20476;-72
2021/12/04 07:44:20;;;;;;;8.80;6.50;;;3.50;99.90;;;;;;5068877;28;20458;-72
2021/12/04 07:46:46;;;;;;;7.83;4.87;;;3.50;99.90;;;;;;5054270;28;20287;-71
2021/12/04 07:49:12;;;;;;;6.90;5.13;;;3.50;99.90;;;;;;5050555;28;20223;-72
2021/12/04 07:51:39;;;;;;;11.00;5.30;;;3.50;99.90;;;;;;5034923;28;20219;-71
2021/12/04 07:54:05;;;;;;;9.43;5.13;;;3.50;99.90;;;;;;5033970;28;20270;-72
2021/12/04 07:56:31;;;;;;;7.90;3.77;;;3.50;99.90;;;;;;5033582;28;20464;-70
2021/12/04 07:58:58;;;;;;;8.83;4.70;;;3.50;99.90;;;;;;5050886;28;20599;-72
2021/12/04 08:01:24;;;;;;;7.70;5.03;;;3.50;99.90;;;;;;5051033;28;20489;-71
2021/12/04 08:03:50;;;;;;;8.03;5.10;;;3.50;99.90;;;;;;5049936;28;20450;-72
2021/12/04 08:06:16;;;;;;;14.80;6.80;;;3.50;99.90;;;;;;5049713;28;20227;-71
2021/12/04 08:08:43;;;;;;;10.90;6.37;;;3.50;99.90;;;;;;5044825;28;20466;-72
2021/12/04 08:11:08;;;;;;;9.90;5.27;;;3.50;99.90;;;;;;5050729;28;20239;-72
2021/12/04 08:13:34;;;;;;;9.10;4.80;;;3.50;99.90;;;;;;5050217;28;20497;-72
2021/12/04 08:16:00;;;;;;;7.10;4.60;;;3.50;99.90;;;;;;5048192;28;20216;-72
2021/12/04 08:18:26;;;;;;;12.10;5.30;;;3.50;99.90;;;;;;5050659;28;20298;-72
2021/12/04 08:20:52;;;;;;;17.10;6.90;;;3.60;99.90;;;;;;5046440;28;20302;-71
2021/12/04 08:23:18;;;;;;;15.10;8.80;;;3.60;99.90;;;;;;5049990;28;20534;-71
2021/12/04 08:25:45;;;;;;;13.57;8.17;;;3.60;99.90;;;;;;5050506;28;20671;-72
2021/12/04 08:28:11;;;;;;;9.37;5.80;;;3.60;99.90;;;;;;5050025;28;20446;-72
2021/12/04 08:30:40;;;;;;;9.10;4.80;;;3.60;99.90;;;;;;5033568;28;20443;-73
2021/12/04 08:33:07;;;;;;;7.90;4.57;;;3.60;99.90;;;;;;5037357;28;20220;-72
2021/12/04 08:35:39;;;;;;;9.10;4.53;;;3.60;99.90;;;;;;5050349;28;20446;-72
2021/12/04 08:38:06;;;;;;;5.50;3.67;;;3.60;99.90;;;;;;5050763;28;20978;-72
2021/12/04 08:40:33;;;;;;;6.93;3.80;;;3.60;99.90;;;;;;5033132;28;20526;-70
2021/12/04 08:42:59;;;;;;;7.33;4.87;;;3.60;99.90;;;;;;5033745;28;20446;-72
2021/12/04 08:45:26;;;;;;;7.40;3.87;;;3.60;99.90;;;;;;5049942;28;20478;-72
2021/12/04 08:47:53;;;;;;;10.47;4.60;;;3.70;99.90;;;;;;5050194;28;20992;-72
2021/12/04 08:50:25;;;;;;;8.37;4.40;;;3.70;99.90;;;;;;5033331;28;20446;-72
2021/12/04 08:52:52;;;;;;;9.27;4.50;;;3.60;99.90;;;;;;5047019;28;20438;-72
2021/12/04 08:55:18;;;;;;;9.00;5.33;;;3.70;99.90;;;;;;5046760;28;20473;-72
2021/12/04 08:57:44;;;;;;;11.57;5.67;;;3.70;99.90;;;;;;5050511;28;20446;-72
2021/12/04 09:00:16;;;;;;;9.07;5.80;;;3.70;99.90;;;;;;5033166;28;20596;-70
2021/12/04 09:02:44;;;;;;;8.93;4.07;;;3.70;99.90;;;;;;5013785;28;20531;-71
2021/12/04 09:05:13;;;;;;;7.17;4.23;;;3.70;99.90;;;;;;5029904;28;20530;-72
2021/12/04 09:07:39;;;;;;;7.60;4.77;;;3.70;99.90;;;;;;5031354;28;20451;-71
2021/12/04 09:10:05;;;;;;;7.67;4.43;;;3.70;99.90;;;;;;5044165;28;20597;-72
2021/12/04 09:12:33;;;;;;;6.70;4.00;;;3.70;99.90;;;;;;5032481;28;20216;-72
2021/12/04 09:15:00;;;;;;;6.87;4.10;;;3.70;99.90;;;;;;5051642;28;20450;-72
2021/12/04 09:17:26;;;;;;;8.17;4.33;;;3.70;99.90;;;;;;5032537;28;20454;-72
2021/12/04 09:19:52;;;;;;;5.40;3.10;;;3.70;99.90;;;;;;5049594;28;20451;-73
2021/12/04 09:22:26;;;;;;;7.53;5.00;;;3.70;99.90;;;;;;5050555;28;20311;-72
2021/12/04 09:24:58;;;;;;;4.83;3.43;;;3.80;99.90;;;;;;5041204;28;20211;-74
2021/12/04 09:35:52;;;;;;;6.70;4.53;;;3.80;99.90;;;;;;5046613;28;20458;-73
2021/12/04 10:03:06;;;;;;;;;;;;;;;;;;;;;
2021/12/04 10:05:54;;;;;;;16.73;8.77;;;3.90;99.90;;;;;;5046082;28;20231;-73
2021/12/04 10:33:12;;;;;;;48.50;18.87;;;4.10;99.90;;;;;;5045034;28;20469;-72
2021/12/04 10:35:38;;;;;;;35.37;18.97;;;4.10;99.90;;;;;;5048014;28;20455;-72
2021/12/04 10:38:06;;;;;;;33.93;14.07;;;4.10;99.90;;;;;;5048273;28;20454;-72
2021/12/04 10:40:44;;;;;;;21.00;11.60;;;4.10;99.90;;;;;;5049684;28;20521;-72
2021/12/04 10:43:29;;;;;;;31.60;12.00;;;4.10;99.90;;;;;;5052043;28;20849;-71
2021/12/04 10:46:09;;;;;;;29.17;11.20;;;4.10;99.90;;;;;;5032077;28;20478;-72
2021/12/04 10:48:36;;;;;;;31.07;12.67;;;4.10;99.90;;;;;;5047624;28;20458;-71
2021/12/04 10:53:47;;;;;;;22.30;11.93;;;4.10;99.90;;;;;;5050571;28;20469;-72
2021/12/04 10:56:46;;;;;;;31.30;13.13;;;4.20;99.90;;;;;;5045907;28;20465;-72
2021/12/04 10:59:37;;;;;;;20.53;10.10;;;4.20;99.90;;;;;;5031811;28;20447;-72
2021/12/04 11:02:15;;;;;;;30.70;12.67;;;4.20;99.90;;;;;;5049349;28;20463;-72
2021/12/04 11:04:51;;;;;;;39.47;15.60;;;4.20;99.90;;;;;;5028957;28;20462;-72
2021/12/04 11:42:43;;;;;;;18.70;8.47;;;4.40;99.90;;;;;;5049471;28;20540;-72
2021/12/04 11:47:44;;;;;;;15.37;8.77;;;4.40;99.90;;;;;;5051406;28;20485;-73
2021/12/04 11:50:31;;;;;;;19.63;10.13;;;4.40;99.90;;;;;;5034456;28;20446;-73
2021/12/04 11:53:04;;;;;;;17.50;9.87;;;4.40;99.90;;;;;;5050513;28;20546;-72
2021/12/04 11:55:34;;;;;;;18.30;9.30;;;4.40;99.90;;;;;;5072415;28;20465;-70
2021/12/04 11:58:01;;;;;;;26.00;10.53;;;4.40;99.90;;;;;;5071924;28;20456;-73
2021/12/04 12:00:35;;;;;;;22.20;10.40;;;4.40;99.90;;;;;;5056837;28;20454;-73
2021/12/04 12:03:23;;;;;;;16.90;10.33;;;4.50;99.90;;;;;;5032949;28;20468;-73
2021/12/04 12:05:51;;;;;;;21.83;11.10;;;4.50;99.90;;;;;;5046203;28;20479;-72
2021/12/04 12:08:42;;;;;;;22.07;9.77;;;4.50;99.90;;;;;;5048401;28;20478;-71
2021/12/04 12:11:14;;;;;;;18.17;9.50;;;4.50;99.90;;;;;;5045841;28;20466;-72
2021/12/04 12:13:48;;;;;;;14.43;7.70;;;4.50;99.90;;;;;;5046885;28;20466;-73
2021/12/04 12:16:18;;;;;;;20.00;8.80;;;4.60;99.90;;;;;;5040910;28;20483;-72
2021/12/04 12:18:52;;;;;;;12.40;6.77;;;4.60;99.90;;;;;;5036823;28;20458;-75
2021/12/04 12:21:22;;;;;;;18.03;7.93;;;4.60;99.90;;;;;;5039228;28;20469;-73
2021/12/04 12:27:11;;;;;;;19.00;8.50;;;4.60;99.90;;;;;;5036641;28;20525;-72
2021/12/04 12:38:47;;;;;;;10.57;5.47;;;4.60;99.90;;;;;;5037561;28;20465;-75
2021/12/04 12:41:35;;;;;;;12.30;6.40;;;4.60;99.90;;;;;;5066575;28;20450;-72
2021/12/04 12:44:12;;;;;;;15.07;6.90;;;4.60;99.90;;;;;;5025431;28;20451;-73
2021/12/04 12:46:44;;;;;;;16.63;7.17;;;4.60;99.90;;;;;;5047090;28;20467;-72
2021/12/04 12:49:24;;;;;;;13.77;7.30;;;4.70;99.90;;;;;;5039609;28;20451;-72
2021/12/04 12:52:03;;;;;;;14.70;7.10;;;4.70;99.90;;;;;;5038423;28;20482;-73
2021/12/04 12:54:53;;;;;;;10.90;6.33;;;4.70;99.90;;;;;;5048122;28;20520;-72
2021/12/04 12:57:29;;;;;;;11.80;7.17;;;4.70;99.90;;;;;;5018784;28;20486;-72
2021/12/04 13:14:23;;;;;;;12.90;7.17;;;4.70;99.90;;;;;;5050074;28;20450;-74
2021/12/04 13:16:56;;;;;;;12.97;6.83;;;4.80;99.90;;;;;;5042300;28;20474;-73
2021/12/04 13:19:23;;;;;;;12.83;6.57;;;4.80;99.90;;;;;;5048451;28;20809;-72
2021/12/04 13:21:52;;;;;;;10.43;5.47;;;4.80;99.90;;;;;;5033309;28;20447;-73
2021/12/04 13:24:28;;;;;;;15.80;6.07;;;4.80;99.90;;;;;;5032144;28;20469;-73
2021/12/04 13:29:35;;;;;;;24.37;11.23;;;4.80;99.90;;;;;;5049254;28;20537;-71
2021/12/04 13:32:03;;;;;;;19.20;10.57;;;4.80;99.90;;;;;;5049365;28;20454;-74
2021/12/04 13:34:29;;;;;;;17.40;8.60;;;4.80;99.90;;;;;;5048686;28;20469;-74
2021/12/04 13:36:57;;;;;;;11.83;7.40;;;4.80;99.90;;;;;;5030703;28;20546;-73
2021/12/04 13:39:24;;;;;;;14.60;5.53;;;4.80;99.90;;;;;;5047850;28;20648;-72
2021/12/04 13:41:53;;;;;;;10.53;6.20;;;4.80;99.90;;;;;;5048705;28;20473;-73
2021/12/04 13:44:21;;;;;;;10.57;5.53;;;4.90;99.90;;;;;;5046519;28;20541;-72
2021/12/04 13:46:56;;;;;;;9.50;5.87;;;4.90;99.90;;;;;;5043947;28;20502;-73
2021/12/04 13:49:32;;;;;;;13.27;6.57;;;4.90;99.90;;;;;;5044367;28;20519;-71
2021/12/04 13:52:06;;;;;;;9.23;6.30;;;4.90;99.90;;;;;;5045769;28;20531;-71
2021/12/04 13:54:37;;;;;;;8.70;6.43;;;4.90;99.90;;;;;;5026290;28;20462;-71
2021/12/04 13:57:10;;;;;;;11.70;6.37;;;4.90;99.90;;;;;;5045481;28;20970;-72
2021/12/04 13:59:35;;;;;;;8.60;6.10;;;4.90;99.90;;;;;;5043333;28;20452;-73
2021/12/04 14:02:01;;;;;;;12.67;5.93;;;4.90;99.90;;;;;;5027696;28;20458;-71
2021/12/04 14:04:27;;;;;;;9.63;5.53;;;4.90;99.90;;;;;;5042918;28;20219;-71
2021/12/04 14:06:54;;;;;;;9.40;6.00;;;4.90;99.90;;;;;;5023996;28;20227;-71
2021/12/04 14:09:23;;;;;;;9.87;5.73;;;4.90;99.90;;;;;;5042088;28;20579;-73
2021/12/04 14:11:52;;;;;;;9.47;5.20;;;4.90;99.90;;;;;;5036595;28;20768;-72
2021/12/04 14:14:24;;;;;;;6.83;4.87;;;4.90;99.90;;;;;;5041639;28;20451;-72
2021/12/04 14:16:52;;;;;;;12.70;6.10;;;4.90;99.90;;;;;;5046586;28;20458;-71
2021/12/04 14:19:24;;;;;;;14.03;8.50;;;4.90;99.90;;;;;;5023015;28;20470;-73
2021/12/04 14:21:57;;;;;;;12.43;6.17;;;4.90;99.90;;;;;;5025463;28;20462;-71
2021/12/04 14:24:42;;;;;;;12.53;6.47;;;4.90;99.90;;;;;;5057238;28;20836;-74
2021/12/04 14:27:10;;;;;;;10.73;5.83;;;4.90;99.90;;;;;;5025220;28;20494;-69
2021/12/04 14:29:41;;;;;;;8.13;4.87;;;4.90;99.90;;;;;;5046622;28;20463;-71
2021/12/04 14:32:07;;;;;;;7.10;4.77;;;4.90;99.90;;;;;;5048083;28;20524;-71
2021/12/04 14:34:33;;;;;;;8.13;5.00;;;4.90;99.90;;;;;;5045077;28;20557;-73
2021/12/04 14:37:12;;;;;;;34.90;18.50;;;4.90;99.90;;;;;;5031406;28;20463;-73
2021/12/04 14:39:46;;;;;;;18.90;13.60;;;4.90;99.90;;;;;;5050832;28;20478;-73
2021/12/04 14:42:20;;;;;;;10.90;6.87;;;5.00;99.90;;;;;;5053691;28;20466;-73
2021/12/04 14:44:58;;;;;;;11.33;6.60;;;5.00;99.90;;;;;;5035225;28;21084;-73
2021/12/04 14:47:30;;;;;;;7.63;5.40;;;5.00;99.90;;;;;;5045859;28;21038;-72
2021/12/04 14:50:00;;;;;;;9.13;5.70;;;5.00;99.90;;;;;;5035583;28;20466;-73
2021/12/04 14:52:29;;;;;;;9.63;5.97;;;5.00;99.90;;;;;;5053131;28;20565;-72
2021/12/04 14:54:56;;;;;;;8.30;5.70;;;5.00;99.90;;;;;;5035573;28;20469;-70
2021/12/04 14:57:25;;;;;;;9.23;5.53;;;5.00;99.90;;;;;;5034821;28;20454;-72
2021/12/04 15:00:06;;;;;;;9.03;6.03;;;5.00;99.90;;;;;;5048020;28;20472;-72
2021/12/04 15:02:32;;;;;;;9.37;4.73;;;5.00;99.90;;;;;;5055491;28;20457;-71
2021/12/04 15:04:57;;;;;;;6.67;4.47;;;5.00;99.90;;;;;;5072365;28;20464;-72
2021/12/04 15:07:27;;;;;;;8.73;4.10;;;5.00;99.90;;;;;;5073051;28;20296;-73
2021/12/04 15:09:52;;;;;;;7.40;4.77;;;5.00;99.90;;;;;;5066633;28;20273;-72
2021/12/04 15:12:33;;;;;;;7.43;4.23;;;5.00;99.90;;;;;;5052113;28;20462;-74
2021/12/04 15:15:08;;;;;;;6.10;4.73;;;5.00;99.90;;;;;;5031858;28;20239;-72
2021/12/04 15:17:34;;;;;;;8.37;5.30;;;5.00;99.90;;;;;;5035779;28;20479;-73
2021/12/04 15:20:05;;;;;;;7.67;5.47;;;5.00;99.90;;;;;;5052091;28;20478;-71
2021/12/04 15:22:37;;;;;;;6.87;3.83;;;5.00;99.90;;;;;;5070537;28;20465;-72
2021/12/04 15:25:08;;;;;;;7.13;4.40;;;5.00;99.90;;;;;;5054321;28;20527;-72
2021/12/04 15:27:34;;;;;;;8.20;4.57;;;5.00;99.90;;;;;;5044790;28;20466;-70
2021/12/04 15:30:00;;;;;;;5.47;4.20;;;5.00;99.90;;;;;;5043660;28;20880;-71
2021/12/04 15:32:28;;;;;;;7.10;4.60;;;5.00;99.90;;;;;;5048635;28;20220;-74
2021/12/04 15:35:11;;;;;;;5.97;4.40;;;5.00;99.90;;;;;;5055582;28;20307;-72
2021/12/04 15:37:58;;;;;;;6.83;4.17;;;5.10;99.90;;;;;;5034729;28;20454;-72
2021/12/04 15:40:36;;;;;;;9.77;5.20;;;5.10;99.90;;;;;;5041051;28;21009;-72
2021/12/04 15:43:19;;;;;;;12.93;5.60;;;5.10;99.90;;;;;;5028796;28;20454;-73
2021/12/04 15:54:04;;;;;;;14.90;8.37;;;5.00;99.90;;;;;;5045377;28;20534;-72
2021/12/04 15:56:37;;;;;;;13.80;6.93;;;5.00;99.90;;;;;;5046823;28;20479;-71
2021/12/04 15:59:05;;;;;;;13.87;7.90;;;5.00;99.90;;;;;;5041626;28;20470;-74
2021/12/04 16:01:31;;;;;;;8.43;5.60;;;5.00;99.90;;;;;;5046281;28;20520;-70
2021/12/04 16:03:58;;;;;;;10.17;5.30;;;5.00;99.90;;;;;;5044470;28;21041;-73
2021/12/04 16:06:39;;;;;;;8.00;5.77;;;5.00;99.90;;;;;;5045107;28;20250;-71
2021/12/04 16:09:06;;;;;;;8.43;5.23;;;5.00;99.90;;;;;;5050751;28;21075;-72
2021/12/04 16:11:40;;;;;;;6.50;4.00;;;5.00;99.90;;;;;;5041230;28;20455;-72
2021/12/04 16:14:08;;;;;;;15.60;7.93;;;5.00;99.90;;;;;;5042867;28;20880;-70
2021/12/04 16:16:38;;;;;;;9.37;6.40;;;5.00;99.90;;;;;;5042122;28;20780;-71
2021/12/04 16:19:04;;;;;;;10.80;5.73;;;5.00;99.90;;;;;;5043558;28;20474;-74
2021/12/04 16:21:34;;;;;;;13.13;8.20;;;5.00;99.90;;;;;;5036792;28;20485;-73
2021/12/04 16:24:00;;;;;;;8.33;6.27;;;4.90;99.90;;;;;;5033692;28;20466;-73
2021/12/04 16:26:28;;;;;;;6.50;4.30;;;4.90;99.90;;;;;;5043637;28;20998;-73
2021/12/04 16:34:06;;;;;;;7.53;4.13;;;4.90;99.90;;;;;;5042460;28;20457;-70
2021/12/04 16:36:44;;;;;;;5.57;4.03;;;4.90;99.90;;;;;;5033156;28;20467;-73